Rio Verde, Brazil
Current Conditions -  °F | °C
As of 3:00 AM on Sunday 26 Oct 2014 (Local Time) from SBGO Reporting Station
Broken Clouds Broken Clouds  
Wind Chill: 70°   Ceiling: 10000
Heat Index: 70°   Visibility: 6mi
Dew Point: 64°   Wind: 7mph
Humidity: 83%   Direction: 130°SE
Pressure: 29.94"   Gusts: NA
Location:  17.82°S, 50.93°W
Report Text: SBGO 260500Z 13006KT 9999 FEW040 BKN100 21/18 Q1014
Loading
Personal Weather Stations






























Interactive Weather Map
Tropical Storm Tracking
New forecast layout! Learn more

10-Day Weather Forecast

Advertisements
Track Severe Weather on mobile